SAOC/RCU METAR and TAF weather

Enter ICAO airport designator
Station Type Date Time Source
SAOC METAR 2022/06/28 15:00 UTC NOAA

SAOC 281500Z 34011KT CAVOK 16/05 Q1020


Station Type Date Time Source
SAOC Decoded METAR 2022/06/28 15:00 UTC NOAA

Rio Cuarto Aerodrome, Argentina (SAOC) 33-07S 064-14W 421M
Jun 28, 2022 - 11:00 AM EDT / 2022.06.28 1500 UTC
Wind: from the NNW (340 degrees) at 13 MPH (11 KT):0
Visibility: greater than 7 mile(s):0
Temperature: 60 F (16 C)
Dew Point: 41 F (5 C)
Relative Humidity: 47%
Pressure (altimeter): 30.12 in. Hg (1020 hPa)
ob: SAOC 281500Z 34011KT CAVOK 16/05 Q1020
cycle: 15

Station Type Date Time Source
SAOC TAF 2022/05/30 12:45 UTC NOAA

TAF COR SAOC 301100Z 3012/3112 VRB03KT 9999 SCT040 TX12/3018Z TN01/3111Z
BECMG 3109/3112 02010KT 9999 SCT035

Example: see airport list